createdAt,value
2022-10-09T00:01:01.957Z,100.00
2022-10-09T00:03:28.725Z,100.00
2022-10-09T00:05:55.300Z,100.00
2022-10-09T00:08:21.905Z,100.00
2022-10-09T00:10:48.504Z,100.00
2022-10-09T00:13:15.399Z,100.00
2022-10-09T00:15:44.630Z,100.00
2022-10-09T00:18:14.844Z,100.00
2022-10-09T00:20:43.767Z,100.00
2022-10-09T00:23:11.498Z,100.00
2022-10-09T00:25:38.408Z,100.00
2022-10-09T00:28:05.407Z,100.00
2022-10-09T00:30:32.400Z,100.00
2022-10-09T00:32:59.054Z,100.00
2022-10-09T00:35:27.019Z,100.00
2022-10-09T00:37:53.623Z,100.00
2022-10-09T00:40:20.198Z,100.00
2022-10-09T00:42:47.053Z,100.00
2022-10-09T00:45:19.747Z,100.00
2022-10-09T00:47:50.282Z,100.00
2022-10-09T00:50:19.825Z,100.00
2022-10-09T00:52:53.091Z,100.00
2022-10-09T00:55:21.224Z,100.00
2022-10-09T00:57:47.968Z,100.00
2022-10-09T01:00:15.043Z,100.00
2022-10-09T01:02:41.672Z,100.00
2022-10-09T01:05:09.969Z,100.00
2022-10-09T01:07:42.893Z,100.00
2022-10-09T01:10:24.190Z,100.00
2022-10-09T01:12:59.254Z,100.00
2022-10-09T01:15:31.667Z,100.00
2022-10-09T01:18:06.794Z,100.00
2022-10-09T01:20:41.639Z,100.00
2022-10-09T01:23:53.314Z,100.00
2022-10-09T01:27:06.720Z,100.00
2022-10-09T01:29:38.573Z,100.00
2022-10-09T01:32:07.658Z,100.00
2022-10-09T01:34:35.075Z,100.00
2022-10-09T01:37:02.839Z,100.00
2022-10-09T01:39:31.250Z,100.00
2022-10-09T01:41:58.231Z,100.00
2022-10-09T01:44:28.016Z,100.00
2022-10-09T01:46:56.375Z,100.00
2022-10-09T01:49:37.026Z,100.00
2022-10-09T01:52:15.597Z,100.00
2022-10-09T01:54:52.215Z,100.00
2022-10-09T01:57:29.504Z,100.00
2022-10-09T01:59:58.764Z,100.00
2022-10-09T02:02:27.858Z,100.00
2022-10-09T02:04:55.359Z,100.00
2022-10-09T02:07:24.029Z,100.00
2022-10-09T02:09:51.330Z,100.00
2022-10-09T02:12:20.303Z,100.00
2022-10-09T02:14:46.965Z,100.00
2022-10-09T02:17:18.164Z,100.00
2022-10-09T02:19:49.950Z,100.00
2022-10-09T02:22:19.871Z,100.00
2022-10-09T02:24:47.275Z,100.00
2022-10-09T02:27:16.009Z,100.00
2022-10-09T02:29:44.688Z,100.00
2022-10-09T02:32:12.569Z,100.00
2022-10-09T02:34:39.380Z,100.00
2022-10-09T02:37:07.951Z,100.00
2022-10-09T02:39:34.911Z,100.00
2022-10-09T02:42:01.761Z,100.00
2022-10-09T02:44:28.423Z,100.00
2022-10-09T02:46:55.080Z,100.00
2022-10-09T02:49:21.675Z,100.00
2022-10-09T02:51:48.226Z,100.00
2022-10-09T02:54:16.144Z,100.00
2022-10-09T02:56:42.834Z,100.00
2022-10-09T02:59:09.383Z,100.00
2022-10-09T03:01:36.132Z,100.00
2022-10-09T03:04:02.930Z,100.00
2022-10-09T03:06:29.736Z,100.00
2022-10-09T03:08:56.548Z,100.00
2022-10-09T03:11:25.507Z,100.00
2022-10-09T03:13:52.195Z,100.00
2022-10-09T03:16:20.387Z,100.00
2022-10-09T03:18:47.997Z,100.00
2022-10-09T03:21:16.939Z,100.00
2022-10-09T03:23:44.047Z,100.00
2022-10-09T03:26:12.883Z,100.00
2022-10-09T03:28:42.687Z,100.00
2022-10-09T03:31:22.401Z,100.00
2022-10-09T03:33:57.182Z,100.00
2022-10-09T03:36:23.716Z,100.00
2022-10-09T03:38:50.268Z,100.00
2022-10-09T03:41:16.851Z,100.00
2022-10-09T03:43:44.877Z,100.00
2022-10-09T03:46:12.314Z,100.00
2022-10-09T03:48:38.969Z,100.00
2022-10-09T03:51:05.789Z,100.00
2022-10-09T03:53:32.364Z,100.00
2022-10-09T03:55:58.988Z,100.00
2022-10-09T03:58:25.665Z,100.00
2022-10-09T04:00:54.013Z,100.00
2022-10-09T04:03:20.919Z,100.00
2022-10-09T04:05:47.522Z,100.00
2022-10-09T04:08:14.597Z,100.00
2022-10-09T04:10:41.195Z,100.00
2022-10-09T04:13:07.771Z,100.00
2022-10-09T04:15:34.758Z,100.00
2022-10-09T04:18:02.814Z,100.00
2022-10-09T04:20:29.398Z,100.00
2022-10-09T04:22:55.981Z,100.00
2022-10-09T04:25:22.605Z,100.00
2022-10-09T04:27:49.167Z,100.00
2022-10-09T04:30:15.816Z,100.00
2022-10-09T04:32:42.699Z,100.00
2022-10-09T04:35:10.637Z,100.00
2022-10-09T04:37:37.212Z,100.00
2022-10-09T04:40:04.361Z,100.00
2022-10-09T04:42:30.952Z,100.00
2022-10-09T04:44:57.506Z,100.00
2022-10-09T04:47:24.141Z,100.00
2022-10-09T04:49:50.703Z,100.00
2022-10-09T04:52:18.636Z,100.00
2022-10-09T04:54:45.254Z,100.00
2022-10-09T04:57:11.871Z,100.00
2022-10-09T04:59:38.417Z,100.00
2022-10-09T05:02:05.078Z,100.00
2022-10-09T05:04:31.808Z,100.00
2022-10-09T05:06:58.391Z,100.00
2022-10-09T05:09:26.388Z,100.00
2022-10-09T05:11:52.922Z,100.00
2022-10-09T05:14:19.492Z,100.00
2022-10-09T05:17:11.748Z,100.00
2022-10-09T05:19:33.157Z,100.00
2022-10-09T05:22:00.091Z,100.00
2022-10-09T05:24:28.882Z,100.00
2022-10-09T05:26:55.471Z,100.00
2022-10-09T05:29:22.107Z,100.00
2022-10-09T05:31:49.797Z,100.00
2022-10-09T05:34:16.515Z,100.00
2022-10-09T05:36:43.133Z,100.00
2022-10-09T05:39:09.734Z,100.00
2022-10-09T05:41:37.679Z,100.00
2022-10-09T05:44:04.686Z,100.00
2022-10-09T05:46:31.447Z,100.00
2022-10-09T05:48:59.535Z,100.00
2022-10-09T05:51:27.739Z,100.00
2022-10-09T05:53:54.812Z,100.00
2022-10-09T05:56:23.506Z,100.00
2022-10-09T05:58:53.349Z,100.00
2022-10-09T06:01:20.915Z,100.00
2022-10-09T06:03:52.450Z,100.00
2022-10-09T06:06:21.398Z,100.00
2022-10-09T06:08:48.339Z,100.00
2022-10-09T06:11:17.263Z,100.00
2022-10-09T06:13:44.375Z,100.00
2022-10-09T06:16:13.777Z,100.00
2022-10-09T06:18:40.645Z,100.00
2022-10-09T06:21:07.798Z,100.00
2022-10-09T06:23:35.139Z,100.00
2022-10-09T06:26:03.860Z,100.00
2022-10-09T06:28:31.876Z,100.00
2022-10-09T06:31:01.802Z,100.00
2022-10-09T06:33:31.465Z,100.00
2022-10-09T06:36:09.665Z,100.00
2022-10-09T06:38:37.440Z,100.00
2022-10-09T06:41:05.060Z,100.00
2022-10-09T06:43:31.753Z,100.00
2022-10-09T06:46:01.358Z,100.00
2022-10-09T06:48:30.364Z,100.00
2022-10-09T06:51:01.020Z,100.00
2022-10-09T06:53:27.616Z,100.00
2022-10-09T06:55:55.475Z,100.00
2022-10-09T06:58:22.405Z,100.00
2022-10-09T07:00:48.939Z,100.00
2022-10-09T07:03:15.545Z,100.00
2022-10-09T07:05:43.546Z,100.00
2022-10-09T07:08:10.084Z,100.00
2022-10-09T07:10:36.660Z,100.00
2022-10-09T07:13:03.978Z,100.00
2022-10-09T07:15:30.548Z,100.00
2022-10-09T07:17:57.244Z,100.00
2022-10-09T07:20:23.881Z,100.00
2022-10-09T07:22:52.177Z,100.00
2022-10-09T07:25:19.075Z,100.00
2022-10-09T07:27:45.757Z,100.00
2022-10-09T07:30:12.752Z,100.00
2022-10-09T07:32:39.730Z,100.00
2022-10-09T07:35:07.120Z,100.00
2022-10-09T07:37:48.874Z,100.00
2022-10-09T07:40:20.120Z,100.00
2022-10-09T07:42:49.708Z,100.00
2022-10-09T07:45:17.050Z,100.00
2022-10-09T07:47:43.950Z,100.00
2022-10-09T07:50:10.518Z,100.00
2022-10-09T07:52:37.135Z,100.00
2022-10-09T07:55:04.250Z,100.00
2022-10-09T07:57:32.214Z,100.00
2022-10-09T08:00:01.100Z,100.00
2022-10-09T08:02:33.386Z,100.00
2022-10-09T08:05:00.336Z,100.00
2022-10-09T08:07:45.593Z,100.00
2022-10-09T08:10:14.215Z,100.00
2022-10-09T08:12:45.748Z,100.00
2022-10-09T08:15:12.493Z,100.00
2022-10-09T08:17:39.262Z,100.00
2022-10-09T08:20:06.998Z,100.00
2022-10-09T08:22:35.492Z,100.00
2022-10-09T08:25:05.725Z,100.00
2022-10-09T08:27:35.156Z,100.00
2022-10-09T08:30:03.889Z,100.00
2022-10-09T08:32:30.626Z,100.00
2022-10-09T08:34:57.274Z,100.00
2022-10-09T08:37:25.029Z,100.00
2022-10-09T08:39:51.677Z,100.00
2022-10-09T08:42:27.607Z,100.00
2022-10-09T08:44:55.131Z,100.00
2022-10-09T08:47:26.146Z,100.00
2022-10-09T08:49:58.937Z,100.00
2022-10-09T08:52:34.787Z,100.00
2022-10-09T08:55:13.440Z,100.00
2022-10-09T08:57:40.537Z,100.00
2022-10-09T09:00:20.614Z,100.00
2022-10-09T09:03:26.193Z,100.00
2022-10-09T09:06:03.593Z,100.00
2022-10-09T09:08:47.605Z,100.00
2022-10-09T09:11:32.976Z,100.00
2022-10-09T09:14:19.233Z,98.77
2022-10-09T09:16:59.488Z,100.00
2022-10-09T09:19:43.081Z,95.64
2022-10-09T09:22:32.995Z,95.22
2022-10-09T09:25:13.810Z,94.29
2022-10-09T09:27:54.748Z,94.47
2022-10-09T09:30:27.216Z,87.48
2022-10-09T09:33:01.760Z,87.53
2022-10-09T09:35:47.316Z,87.99
2022-10-09T09:38:14.462Z,85.20
2022-10-09T09:40:47.549Z,87.60
2022-10-09T09:43:21.459Z,86.28
2022-10-09T09:45:53.416Z,84.49
2022-10-09T09:48:33.361Z,84.05
2022-10-09T09:51:29.098Z,82.10
2022-10-09T09:53:56.738Z,82.44
2022-10-09T09:56:47.779Z,81.83
2022-10-09T09:59:27.693Z,80.57
2022-10-09T10:01:59.770Z,78.97
2022-10-09T10:04:26.410Z,83.31
2022-10-09T10:07:03.459Z,81.48
2022-10-09T10:09:33.150Z,82.69
2022-10-09T10:12:01.322Z,83.66
2022-10-09T10:14:28.503Z,81.00
2022-10-09T10:16:56.911Z,78.17
2022-10-09T10:19:26.604Z,80.03
2022-10-09T10:21:59.611Z,77.33
2022-10-09T10:24:43.104Z,80.91
2022-10-09T10:27:29.513Z,79.94
2022-10-09T10:30:07.672Z,79.53
2022-10-09T10:32:44.161Z,75.01
2022-10-09T10:35:14.526Z,77.50
2022-10-09T10:37:53.216Z,73.87
2022-10-09T10:40:26.366Z,71.49
2022-10-09T10:43:04.118Z,71.31
2022-10-09T10:45:40.930Z,70.44
2022-10-09T10:48:20.197Z,71.86
2022-10-09T10:50:54.445Z,70.71
2022-10-09T10:53:37.932Z,72.48
2022-10-09T10:56:13.895Z,73.39
2022-10-09T10:58:53.035Z,75.29
2022-10-09T11:01:33.582Z,75.06
2022-10-09T11:04:43.588Z,69.94
2022-10-09T11:07:24.286Z,69.75
2022-10-09T11:10:08.986Z,71.01
2022-10-09T11:12:48.136Z,73.04
2022-10-09T11:15:34.705Z,70.04
2022-10-09T11:18:16.148Z,69.38
2022-10-09T11:21:02.690Z,68.04
2022-10-09T11:23:50.054Z,69.06
2022-10-09T11:26:31.167Z,76.91
2022-10-09T11:29:04.085Z,70.33
2022-10-09T11:31:36.990Z,69.86
2022-10-09T11:34:12.287Z,70.65
2022-10-09T11:36:41.389Z,71.42
2022-10-09T11:39:14.237Z,71.37
2022-10-09T11:41:43.276Z,70.26
2022-10-09T11:44:35.615Z,67.38
2022-10-09T11:47:11.748Z,66.46
2022-10-09T11:49:50.467Z,66.42
2022-10-09T11:52:24.486Z,66.97
2022-10-09T11:54:51.139Z,67.97
2022-10-09T11:57:29.085Z,65.69
2022-10-09T12:00:05.374Z,69.18
2022-10-09T12:02:32.167Z,68.43
2022-10-09T12:04:58.951Z,66.68
2022-10-09T12:07:32.367Z,66.13
2022-10-09T12:10:02.700Z,65.82
2022-10-09T12:12:31.534Z,67.04
2022-10-09T12:14:58.131Z,67.88
2022-10-09T12:17:35.123Z,66.59
2022-10-09T12:20:07.355Z,65.46
2022-10-09T12:22:37.370Z,64.22
2022-10-09T12:25:06.894Z,62.97
2022-10-09T12:27:39.236Z,61.31
2022-10-09T12:30:21.138Z,62.06
2022-10-09T12:32:54.029Z,63.30
2022-10-09T12:35:25.196Z,63.21
2022-10-09T12:37:53.056Z,64.67
2022-10-09T12:40:23.082Z,63.88
2022-10-09T12:42:53.069Z,66.28
2022-10-09T12:45:22.984Z,62.38
2022-10-09T12:47:51.007Z,65.79
2022-10-09T12:50:23.072Z,63.10
2022-10-09T12:52:51.978Z,64.64
2022-10-09T12:55:26.260Z,62.93
2022-10-09T12:58:02.142Z,61.20
2022-10-09T13:00:29.951Z,61.05
2022-10-09T13:02:56.758Z,62.72
2022-10-09T13:05:42.752Z,64.01
2022-10-09T13:08:27.153Z,63.07
2022-10-09T13:10:57.934Z,65.36
2022-10-09T13:13:28.592Z,65.54
2022-10-09T13:16:01.048Z,65.80
2022-10-09T13:18:28.482Z,64.70
2022-10-09T13:21:00.654Z,67.87
2022-10-09T13:23:33.002Z,70.30
2022-10-09T13:26:03.686Z,67.60
2022-10-09T13:28:32.110Z,67.73
2022-10-09T13:31:06.900Z,70.17
2022-10-09T13:33:33.980Z,70.59
2022-10-09T13:36:00.658Z,69.98
2022-10-09T13:38:30.207Z,70.31
2022-10-09T13:41:00.142Z,70.52
2022-10-09T13:43:30.383Z,67.30
2022-10-09T13:45:58.910Z,66.38
2022-10-09T13:48:25.598Z,66.86
2022-10-09T13:50:52.774Z,67.96
2022-10-09T13:53:19.458Z,65.69
2022-10-09T13:55:46.131Z,67.02
2022-10-09T13:58:12.741Z,69.77
2022-10-09T14:00:39.695Z,70.57
2022-10-09T14:03:07.964Z,69.07
2022-10-09T14:05:34.659Z,68.13
2022-10-09T14:08:01.323Z,68.82
2022-10-09T14:10:28.535Z,68.07
2022-10-09T14:12:55.141Z,68.06
2022-10-09T14:15:21.879Z,69.66
2022-10-09T14:17:49.644Z,69.67
2022-10-09T14:20:18.094Z,71.21
2022-10-09T14:22:44.999Z,73.12
2022-10-09T14:25:13.116Z,73.05
2022-10-09T14:27:42.812Z,72.84
2022-10-09T14:30:11.873Z,74.13
2022-10-09T14:32:38.581Z,74.46
2022-10-09T14:35:08.432Z,76.66
2022-10-09T14:37:41.663Z,76.19
2022-10-09T14:40:09.877Z,77.34
2022-10-09T14:42:36.915Z,77.08
2022-10-09T14:45:04.584Z,75.53
2022-10-09T14:47:31.481Z,76.96
2022-10-09T14:49:58.044Z,77.40
2022-10-09T14:52:24.737Z,78.08
2022-10-09T14:54:53.016Z,80.18
2022-10-09T14:57:19.655Z,78.04
2022-10-09T14:59:46.239Z,79.75
2022-10-09T15:02:14.354Z,79.41
2022-10-09T15:04:40.989Z,79.88
2022-10-09T15:07:07.745Z,83.53
2022-10-09T15:09:34.418Z,82.98
2022-10-09T15:12:02.344Z,81.53
2022-10-09T15:14:29.185Z,78.17
2022-10-09T15:16:55.850Z,77.74
2022-10-09T15:19:22.574Z,78.01
2022-10-09T15:21:49.275Z,78.13
2022-10-09T15:24:15.983Z,77.31
2022-10-09T15:26:42.575Z,79.56
2022-10-09T15:29:11.455Z,81.84
2022-10-09T15:31:39.527Z,80.88
2022-10-09T15:34:07.227Z,79.77
2022-10-09T15:36:36.369Z,79.71
2022-10-09T15:39:03.764Z,81.28
2022-10-09T15:41:32.703Z,81.27
2022-10-09T15:44:01.627Z,82.32
2022-10-09T15:46:30.331Z,81.91
2022-10-09T15:48:57.509Z,80.98
2022-10-09T15:51:24.873Z,80.82
2022-10-09T15:53:52.733Z,83.52
2022-10-09T15:56:21.495Z,82.32
2022-10-09T15:58:48.597Z,83.05
2022-10-09T16:01:16.325Z,83.16
2022-10-09T16:03:45.043Z,82.36
2022-10-09T16:06:13.071Z,82.52
2022-10-09T16:08:42.867Z,81.30
2022-10-09T16:11:11.826Z,83.27
2022-10-09T16:13:42.601Z,83.82
2022-10-09T16:16:11.672Z,83.64
2022-10-09T16:18:38.434Z,83.86
2022-10-09T16:21:07.741Z,84.59
2022-10-09T16:23:34.886Z,82.81
2022-10-09T16:26:02.719Z,82.71
2022-10-09T16:28:30.642Z,83.97
2022-10-09T16:30:58.330Z,84.42
2022-10-09T16:33:25.363Z,84.16
2022-10-09T16:35:52.043Z,83.46
2022-10-09T16:38:20.492Z,86.18
2022-10-09T16:41:04.289Z,84.58
2022-10-09T16:43:32.834Z,83.39
2022-10-09T16:46:08.958Z,82.64
2022-10-09T16:48:35.835Z,81.44
2022-10-09T16:51:02.410Z,82.99
2022-10-09T16:53:30.422Z,82.08
2022-10-09T16:56:07.012Z,82.25
2022-10-09T16:58:33.866Z,83.66
2022-10-09T17:01:01.175Z,85.35
2022-10-09T17:03:27.850Z,85.17
2022-10-09T17:05:54.566Z,84.47
2022-10-09T17:08:22.312Z,85.08
2022-10-09T17:10:50.466Z,85.14
2022-10-09T17:13:17.196Z,87.40
2022-10-09T17:15:44.172Z,84.47
2022-10-09T17:18:11.967Z,85.09
2022-10-09T17:20:38.944Z,85.33
2022-10-09T17:23:05.907Z,85.73
2022-10-09T17:25:32.834Z,85.34
2022-10-09T17:28:07.854Z,87.99
2022-10-09T17:30:38.532Z,89.12
2022-10-09T17:33:05.489Z,89.05
2022-10-09T17:35:32.240Z,91.11
2022-10-09T17:37:58.924Z,89.91
2022-10-09T17:40:25.644Z,89.78
2022-10-09T17:42:52.539Z,92.45
2022-10-09T17:45:20.787Z,97.87
2022-10-09T17:47:47.518Z,95.38
2022-10-09T17:50:14.116Z,96.28
2022-10-09T17:52:40.725Z,95.31
2022-10-09T17:55:08.471Z,90.50
2022-10-09T17:57:35.035Z,98.20
2022-10-09T18:00:01.978Z,95.75
2022-10-09T18:02:30.091Z,95.15
2022-10-09T18:04:56.675Z,93.67
2022-10-09T18:07:24.663Z,89.94
2022-10-09T18:10:00.410Z,90.96
2022-10-09T18:12:29.855Z,94.32
2022-10-09T18:14:56.324Z,93.00
2022-10-09T18:17:22.974Z,92.26
2022-10-09T18:19:51.044Z,94.46
2022-10-09T18:22:17.944Z,95.63
2022-10-09T18:24:49.328Z,94.25
2022-10-09T18:27:15.935Z,94.01
2022-10-09T18:29:42.712Z,97.56
2022-10-09T18:34:57.506Z,100.00
2022-10-09T18:37:24.103Z,97.89
2022-10-09T18:39:50.702Z,99.70
2022-10-09T18:42:17.311Z,97.91
2022-10-09T18:44:43.924Z,100.00
2022-10-09T18:47:14.215Z,100.00
2022-10-09T18:49:47.662Z,100.00
2022-10-09T18:52:16.265Z,100.00
2022-10-09T18:54:45.867Z,100.00
2022-10-09T18:57:12.745Z,100.00
2022-10-09T18:59:39.840Z,100.00
2022-10-09T19:02:06.478Z,100.00
2022-10-09T19:04:33.608Z,100.00
2022-10-09T19:07:00.225Z,100.00
2022-10-09T19:09:28.171Z,100.00
2022-10-09T19:11:54.825Z,100.00
2022-10-09T19:14:21.428Z,100.00
2022-10-09T19:16:48.162Z,100.00
2022-10-09T19:19:15.003Z,100.00
2022-10-09T19:21:41.623Z,100.00
2022-10-09T19:24:08.174Z,100.00
2022-10-09T19:26:36.979Z,100.00
2022-10-09T19:29:04.922Z,100.00
2022-10-09T19:31:32.074Z,100.00
2022-10-09T19:34:00.009Z,100.00
2022-10-09T19:36:26.688Z,100.00
2022-10-09T19:38:53.255Z,100.00
2022-10-09T19:41:19.946Z,100.00
2022-10-09T19:43:47.876Z,100.00
2022-10-09T19:46:16.736Z,100.00
2022-10-09T19:48:43.379Z,100.00
2022-10-09T19:51:11.878Z,100.00
2022-10-09T19:53:38.834Z,100.00
2022-10-09T19:56:09.864Z,100.00
2022-10-09T19:58:39.293Z,100.00
2022-10-09T20:01:07.128Z,100.00
2022-10-09T20:03:33.790Z,100.00
2022-10-09T20:06:01.372Z,100.00
2022-10-09T20:08:27.999Z,100.00
2022-10-09T20:10:58.076Z,100.00
2022-10-09T20:13:24.670Z,100.00
2022-10-09T20:15:51.247Z,100.00
2022-10-09T20:18:19.183Z,100.00
2022-10-09T20:20:46.947Z,100.00
2022-10-09T20:23:13.721Z,100.00
2022-10-09T20:25:40.336Z,100.00
2022-10-09T20:28:07.010Z,100.00
2022-10-09T20:30:33.743Z,100.00
2022-10-09T20:33:01.081Z,100.00
2022-10-09T20:35:30.549Z,100.00
2022-10-09T20:37:57.864Z,100.00
2022-10-09T20:40:24.551Z,100.00
2022-10-09T20:42:51.511Z,100.00
2022-10-09T20:45:18.435Z,100.00
2022-10-09T20:47:44.987Z,100.00
2022-10-09T20:50:11.589Z,100.00
2022-10-09T20:52:39.477Z,100.00
2022-10-09T20:55:07.233Z,100.00
2022-10-09T20:57:33.842Z,100.00
2022-10-09T21:00:00.441Z,100.00
2022-10-09T21:02:27.076Z,100.00
2022-10-09T21:04:53.699Z,100.00
2022-10-09T21:07:20.306Z,100.00
2022-10-09T21:09:48.296Z,100.00
2022-10-09T21:12:15.052Z,100.00
2022-10-09T21:14:41.604Z,100.00
2022-10-09T21:17:08.248Z,100.00
2022-10-09T21:19:34.896Z,100.00
2022-10-09T21:22:03.631Z,100.00
2022-10-09T21:24:30.316Z,100.00
2022-10-09T21:26:59.388Z,100.00
2022-10-09T21:29:25.943Z,100.00
2022-10-09T21:31:52.545Z,100.00
2022-10-09T21:34:19.135Z,100.00
2022-10-09T21:37:19.351Z,100.00
2022-10-09T21:39:34.886Z,100.00
2022-10-09T21:42:02.783Z,100.00
2022-10-09T21:44:29.335Z,100.00
2022-10-09T21:46:56.591Z,100.00
2022-10-09T21:49:25.337Z,100.00
2022-10-09T21:51:52.156Z,100.00
2022-10-09T21:54:19.005Z,100.00
2022-10-09T21:56:45.586Z,100.00
2022-10-09T21:59:13.523Z,100.00
2022-10-09T22:01:40.147Z,100.00
2022-10-09T22:04:06.745Z,100.00
2022-10-09T22:06:33.324Z,100.00
2022-10-09T22:09:00.003Z,100.00
2022-10-09T22:11:27.043Z,100.00
2022-10-09T22:13:55.263Z,100.00
2022-10-09T22:16:23.676Z,100.00
2022-10-09T22:18:50.251Z,100.00
2022-10-09T22:21:17.837Z,100.00
2022-10-09T22:23:44.835Z,100.00
2022-10-09T22:26:13.477Z,100.00
2022-10-09T22:28:40.458Z,100.00
2022-10-09T22:31:10.554Z,100.00
2022-10-09T22:33:39.405Z,100.00
2022-10-09T22:36:08.688Z,100.00
2022-10-09T22:38:36.816Z,100.00
2022-10-09T22:41:08.227Z,100.00
2022-10-09T22:43:35.351Z,100.00
2022-10-09T22:46:06.024Z,100.00
2022-10-09T22:48:32.614Z,100.00
2022-10-09T22:51:03.533Z,100.00
2022-10-09T22:53:30.089Z,100.00
2022-10-09T22:55:56.634Z,100.00
2022-10-09T22:58:23.238Z,100.00
2022-10-09T23:00:50.255Z,100.00
2022-10-09T23:03:17.713Z,100.00
2022-10-09T23:05:44.408Z,100.00
2022-10-09T23:08:12.619Z,100.00
2022-10-09T23:10:39.648Z,100.00
2022-10-09T23:13:06.441Z,100.00
2022-10-09T23:15:34.696Z,100.00
2022-10-09T23:18:01.234Z,100.00
2022-10-09T23:20:27.812Z,100.00
2022-10-09T23:22:54.546Z,100.00
2022-10-09T23:25:22.470Z,100.00
2022-10-09T23:27:49.031Z,100.00
2022-10-09T23:30:15.748Z,100.00
2022-10-09T23:32:42.314Z,100.00
2022-10-09T23:35:09.248Z,100.00
2022-10-09T23:37:35.816Z,100.00
2022-10-09T23:40:02.370Z,100.00
2022-10-09T23:42:30.308Z,100.00
2022-10-09T23:44:56.908Z,100.00
2022-10-09T23:47:23.531Z,100.00
2022-10-09T23:49:50.073Z,100.00
2022-10-09T23:52:16.668Z,100.00
2022-10-09T23:54:43.341Z,100.00
2022-10-09T23:57:09.895Z,100.00
2022-10-09T23:59:37.864Z,100.00
